Time;durP1;ratioP1;P1;durP2;ratioP2;P2;SDS_P1;SDS_P2;PMS_P1;PMS_P2;Temp;Humidity;BMP_temperature;BMP_pressure;BME280_temperature;BME280_humidity;BME280_pressure;Samples;Min_cycle;Max_cycle;Signal;HPM_P1;HPM_P2
2021/11/10 00:00:16;;;;;;;9.52;5.60;;;;;;;8.43;100.00;99352.19;4997005;28;20112;-85
2021/11/10 00:02:42;;;;;;;13.13;6.50;;;;;;;8.44;100.00;99354.81;5015464;28;20390;-87
2021/11/10 00:05:09;;;;;;;9.73;5.63;;;;;;;8.18;100.00;99339.38;5008333;28;20034;-84
2021/11/10 00:07:34;;;;;;;9.80;5.88;;;;;;;8.23;100.00;99339.28;5000078;28;20030;-84
2021/11/10 00:10:00;;;;;;;8.45;5.57;;;;;;;8.23;100.00;99349.97;5000211;28;20152;-85
2021/11/10 00:12:26;;;;;;;8.02;5.38;;;;;;;8.30;100.00;99356.94;4999690;28;20038;-87
2021/11/10 00:14:51;;;;;;;11.75;5.30;;;;;;;8.33;100.00;99362.19;5000095;28;20049;-85
2021/11/10 00:17:17;;;;;;;7.97;5.45;;;;;;;8.37;100.00;99360.31;4999889;28;20536;-87
2021/11/10 00:19:42;;;;;;;9.35;5.97;;;;;;;8.33;100.00;99351.53;4999383;28;20457;-84
2021/11/10 00:22:08;;;;;;;10.13;6.28;;;;;;;8.22;100.00;99350.84;5030372;28;20029;-85
2021/11/10 00:24:34;;;;;;;10.80;6.13;;;;;;;8.34;100.00;99355.06;4999547;28;20034;-85
2021/11/10 00:26:59;;;;;;;9.75;6.25;;;;;;;8.26;100.00;99357.00;4999455;28;20029;-85
2021/11/10 00:29:25;;;;;;;11.63;6.50;;;;;;;8.23;100.00;99351.75;4999653;28;20389;-86
2021/11/10 00:31:51;;;;;;;11.63;6.75;;;;;;;8.17;100.00;99348.31;4999195;28;20032;-85
2021/11/10 00:34:16;;;;;;;13.48;6.78;;;;;;;8.10;100.00;99357.38;5016060;28;20021;-86
2021/11/10 00:36:42;;;;;;;12.38;7.25;;;;;;;8.04;100.00;99345.97;4999210;28;20020;-85
2021/11/10 00:39:07;;;;;;;12.10;7.32;;;;;;;8.12;100.00;99357.34;5002608;28;20476;-85
2021/11/10 00:41:33;;;;;;;10.75;6.43;;;;;;;8.18;100.00;99366.03;5013374;28;20025;-85
2021/11/10 00:44:02;;;;;;;8.27;5.82;;;;;;;8.16;100.00;99359.88;4999502;28;20025;-85
2021/11/10 00:46:31;;;;;;;10.40;6.97;;;;;;;8.23;100.00;99359.75;4999852;28;20030;-86
2021/11/10 00:48:58;;;;;;;8.30;5.50;;;;;;;8.11;100.00;99356.47;5015229;28;20407;-86
2021/11/10 00:51:23;;;;;;;10.80;6.43;;;;;;;8.12;100.00;99349.34;4999406;28;20076;-86
2021/11/10 00:53:49;;;;;;;9.02;5.95;;;;;;;8.15;100.00;99350.13;5008518;28;20515;-86
2021/11/10 00:56:15;;;;;;;10.30;6.40;;;;;;;8.16;100.00;99346.56;5012340;28;20049;-87
2021/11/10 00:58:40;;;;;;;12.15;6.90;;;;;;;8.17;100.00;99343.00;5012597;28;20144;-85
2021/11/10 01:01:06;;;;;;;9.43;6.07;;;;;;;8.21;100.00;99348.25;5014433;28;20033;-85
2021/11/10 01:03:32;;;;;;;11.88;6.80;;;;;;;8.12;100.00;99344.03;4998912;28;20022;-85
2021/11/10 01:05:58;;;;;;;10.80;6.57;;;;;;;8.23;100.00;99354.41;4998549;28;20500;-84
2021/11/10 01:08:25;;;;;;;13.10;6.00;;;;;;;8.10;100.00;99336.03;5007001;28;20049;-85
2021/11/10 01:10:51;;;;;;;6.80;4.30;;;;;;;8.15;100.00;99335.94;5013089;28;20036;-86
2021/11/10 01:13:17;;;;;;;3.75;2.72;;;;;;;8.16;100.00;99345.69;4998758;28;20400;-84
2021/11/10 01:15:43;;;;;;;5.90;3.92;;;;;;;8.28;100.00;99345.41;4998515;28;20035;-85
2021/11/10 01:18:09;;;;;;;6.18;4.00;;;;;;;8.24;100.00;99343.72;5011670;28;20029;-85
2021/11/10 01:20:35;;;;;;;7.80;4.85;;;;;;;8.24;100.00;99338.41;5011083;28;20025;-85
2021/11/10 01:23:00;;;;;;;11.38;5.82;;;;;;;8.24;100.00;99337.50;5014309;28;20048;-86
2021/11/10 01:25:27;;;;;;;9.27;6.65;;;;;;;8.16;100.00;99335.91;5003761;28;20095;-85
2021/11/10 01:27:53;;;;;;;9.05;6.45;;;;;;;8.05;100.00;99326.41;4998013;28;20116;-85
2021/11/10 01:30:20;;;;;;;10.68;6.50;;;;;;;7.89;100.00;99333.00;4998228;28;20469;-86
2021/11/10 01:32:47;;;;;;;9.70;6.50;;;;;;;7.85;100.00;99345.50;4998210;28;20112;-86
2021/11/10 01:35:13;;;;;;;10.70;6.55;;;;;;;7.93;100.00;99343.56;5011407;28;20053;-85
2021/11/10 01:37:38;;;;;;;10.48;6.90;;;;;;;7.82;100.00;99342.91;5010801;28;20025;-85
2021/11/10 01:40:05;;;;;;;16.08;6.97;;;;;;;7.91;100.00;99344.47;5006951;28;20037;-84
2021/11/10 01:42:30;;;;;;;11.63;6.97;;;;;;;7.93;100.00;99342.69;4998859;28;20022;-84
2021/11/10 01:44:57;;;;;;;10.23;6.43;;;;;;;7.90;100.00;99337.41;4997937;28;20175;-85
2021/11/10 01:47:23;;;;;;;10.82;6.88;;;;;;;7.95;100.00;99347.06;4998377;28;20495;-85
2021/11/10 01:49:49;;;;;;;13.93;8.82;;;;;;;7.99;100.00;99356.75;5011685;28;20054;-84
2021/11/10 01:52:14;;;;;;;16.02;9.73;;;;;;;8.03;100.00;99361.06;4998586;28;20025;-84
2021/11/10 01:54:41;;;;;;;14.00;8.43;;;;;;;7.89;100.00;99347.19;5010679;28;20026;-83
2021/11/10 01:57:08;;;;;;;15.40;7.60;;;;;;;7.92;100.00;99360.44;4990204;28;20030;-86
2021/11/10 01:59:38;;;;;;;11.90;7.47;;;;;;;7.90;100.00;99359.63;4997787;28;20017;-84
2021/11/10 02:02:06;;;;;;;11.57;6.85;;;;;;;7.85;100.00;99349.94;4996481;28;20473;-87
2021/11/10 02:04:35;;;;;;;10.18;6.68;;;;;;;7.90;100.00;99348.06;4998326;28;20451;-85
2021/11/10 02:07:01;;;;;;;12.93;6.20;;;;;;;7.86;100.00;99341.06;4997972;28;20095;-85
2021/11/10 02:09:27;;;;;;;10.38;6.80;;;;;;;7.76;100.00;99355.47;4996374;28;20452;-86
2021/11/10 02:11:55;;;;;;;11.68;7.15;;;;;;;7.62;100.00;99347.81;4995989;28;20029;-84
2021/11/10 02:14:23;;;;;;;10.68;6.78;;;;;;;7.47;100.00;99354.34;5029818;28;20025;-84
2021/11/10 02:16:50;;;;;;;11.50;6.57;;;;;;;7.41;100.00;99348.25;5011729;28;20425;-85
2021/11/10 02:19:17;;;;;;;10.55;6.25;;;;;;;7.35;100.00;99351.03;4997690;28;20029;-85
2021/11/10 02:21:47;;;;;;;9.80;6.30;;;;;;;7.31;100.00;99341.34;5014050;28;20477;-84
2021/11/10 02:24:13;;;;;;;9.63;5.55;;;;;;;7.22;100.00;99345.06;5013031;28;20026;-84
2021/11/10 02:26:41;;;;;;;9.23;5.70;;;;;;;7.06;100.00;99357.78;4997493;28;20025;-85
2021/11/10 02:29:08;;;;;;;9.05;5.35;;;;;;;6.99;100.00;99365.91;4997427;28;20049;-85
2021/11/10 02:31:37;;;;;;;10.43;6.20;;;;;;;6.86;100.00;99349.28;5005721;28;20615;-85
2021/11/10 02:34:03;;;;;;;9.88;6.22;;;;;;;6.87;100.00;99356.38;5009926;28;20033;-85
2021/11/10 02:36:30;;;;;;;12.45;6.32;;;;;;;6.88;100.00;99363.47;5012639;28;20025;-85
2021/11/10 02:39:02;;;;;;;11.82;6.82;;;;;;;6.79;100.00;99344.13;5011495;28;20037;-84
2021/11/10 02:41:29;;;;;;;14.37;7.03;;;;;;;6.85;100.00;99355.53;4997968;28;20065;-86
2021/11/10 02:43:55;;;;;;;11.05;6.93;;;;;;;6.87;100.00;99364.34;5011215;28;20276;-84
2021/11/10 02:46:21;;;;;;;14.65;6.57;;;;;;;6.74;100.00;99349.50;4997006;28;20424;-86
2021/11/10 02:48:47;;;;;;;10.63;6.65;;;;;;;6.79;100.00;99366.28;5009054;28;20492;-85
2021/11/10 02:51:13;;;;;;;19.80;6.85;;;;;;;6.69;100.00;99354.03;5013201;28;20110;-85
2021/11/10 02:53:39;;;;;;;14.15;6.93;;;;;;;6.66;100.00;99359.41;4994069;28;20030;-85
2021/11/10 02:56:05;;;;;;;10.55;6.30;;;;;;;6.56;100.00;99360.47;5012139;28;20421;-86
2021/11/10 02:58:34;;;;;;;11.95;7.47;;;;;;;6.51;100.00;99359.69;4997292;28;20029;-86
2021/11/10 03:01:00;;;;;;;15.32;8.60;;;;;;;6.60;100.00;99351.53;4997213;28;20029;-85
2021/11/10 03:03:26;;;;;;;16.88;7.43;;;;;;;6.62;100.00;99356.81;5010309;28;20032;-86
2021/11/10 03:05:52;;;;;;;15.75;8.25;;;;;;;6.69;100.00;99363.81;5009972;28;20036;-85
2021/11/10 03:08:22;;;;;;;12.93;7.65;;;;;;;6.64;100.00;99344.41;4997167;28;20610;-85
2021/11/10 03:10:49;;;;;;;12.80;7.13;;;;;;;6.76;100.00;99357.47;5001655;28;20033;-84
2021/11/10 03:13:15;;;;;;;14.18;6.55;;;;;;;6.82;100.00;99363.56;4997123;28;20041;-86
2021/11/10 03:15:42;;;;;;;9.25;5.80;;;;;;;6.73;100.00;99337.16;4997450;28;20028;-86
2021/11/10 03:18:08;;;;;;;8.15;5.30;;;;;;;6.81;100.00;99347.63;4996765;28;20049;-86
2021/11/10 03:20:34;;;;;;;8.95;5.53;;;;;;;6.70;100.00;99347.84;4997347;28;20472;-86
2021/11/10 03:23:00;;;;;;;5.63;4.07;;;;;;;6.58;100.00;99345.41;4997093;28;20021;-84
2021/11/10 03:25:26;;;;;;;6.07;4.30;;;;;;;6.45;100.00;99338.53;5011049;28;20436;-85
2021/11/10 03:27:51;;;;;;;11.32;5.50;;;;;;;6.30;100.00;99346.75;4997009;28;20029;-86
2021/11/10 03:30:18;;;;;;;7.07;5.18;;;;;;;6.30;100.00;99347.63;4998305;28;20017;-83
2021/11/10 03:32:45;;;;;;;6.60;4.25;;;;;;;6.21;100.00;99339.81;5017097;28;20030;-86
2021/11/10 03:35:12;;;;;;;5.10;3.83;;;;;;;6.06;100.00;99331.19;5000741;28;20080;-85
2021/11/10 03:37:38;;;;;;;6.90;4.15;;;;;;;5.91;100.00;99326.97;5001215;28;20094;-85
2021/11/10 03:40:05;;;;;;;10.73;4.63;;;;;;;5.92;100.00;99337.56;5016932;28;20035;-85
2021/11/10 03:42:31;;;;;;;9.65;5.60;;;;;;;5.83;100.00;99327.06;5015650;28;20507;-85
2021/11/10 03:44:56;;;;;;;8.02;5.68;;;;;;;5.78;100.00;99326.22;5005777;28;20029;-86
2021/11/10 03:47:22;;;;;;;9.20;4.80;;;;;;;5.64;100.00;99317.59;5000436;28;20033;-86
2021/11/10 03:49:48;;;;;;;6.13;4.10;;;;;;;5.66;100.00;99339.66;5000389;28;20195;-86
2021/11/10 03:52:15;;;;;;;5.72;3.90;;;;;;;5.56;100.00;99323.91;5000439;28;20056;-86
2021/11/10 03:54:41;;;;;;;8.35;4.70;;;;;;;5.57;100.00;99326.53;4988740;28;20452;-84
2021/11/10 03:57:08;;;;;;;7.72;5.10;;;;;;;5.50;100.00;99319.56;5014027;28;20033;-85
2021/11/10 03:59:34;;;;;;;17.33;5.90;;;;;;;5.44;100.00;99319.66;5008052;28;20021;-84
2021/11/10 04:02:00;;;;;;;36.90;13.45;;;;;;;5.37;100.00;99307.34;5000250;28;20423;-85
2021/11/10 04:04:25;;;;;;;79.50;26.67;;;;;;;5.41;100.00;99309.06;5016402;28;20067;-84
2021/11/10 04:06:51;;;;;;;21.95;9.40;;;;;;;5.56;100.00;99313.28;5016562;28;20025;-85
2021/11/10 04:09:17;;;;;;;23.27;10.93;;;;;;;5.47;100.00;99315.16;4999718;28;20068;-84
2021/11/10 04:11:51;;;;;;;28.25;12.73;;;;;;;5.50;100.00;99326.66;5016269;28;20529;-86
2021/11/10 04:14:17;;;;;;;33.00;13.70;;;;;;;5.42;100.00;99311.69;5016108;28;20463;-85
2021/11/10 04:16:43;;;;;;;16.35;8.85;;;;;;;5.41;100.00;99311.72;4999897;28;20029;-85
2021/11/10 04:19:09;;;;;;;7.93;5.38;;;;;;;5.36;100.00;99302.94;4999941;28;20035;-86
2021/11/10 04:21:34;;;;;;;7.22;4.15;;;;;;;5.45;100.00;99327.56;4999839;28;20496;-85
2021/11/10 04:24:01;;;;;;;7.60;4.95;;;;;;;5.22;100.00;99315.50;4999744;28;20025;-84
2021/11/10 04:26:29;;;;;;;10.20;5.30;;;;;;;5.19;100.00;99315.53;4999985;28;20056;-85
2021/11/10 04:28:56;;;;;;;8.13;4.95;;;;;;;5.16;100.00;99331.50;4999468;28;20872;-85
2021/11/10 04:31:22;;;;;;;14.52;5.85;;;;;;;5.11;100.00;99333.31;4999970;28;20033;-85
2021/11/10 04:33:48;;;;;;;12.30;6.28;;;;;;;5.01;100.00;99323.72;5008787;28;20120;-84
2021/11/10 04:36:15;;;;;;;14.02;6.63;;;;;;;5.01;100.00;99327.25;5016709;28;20108;-85
2021/11/10 04:38:41;;;;;;;11.00;6.68;;;;;;;5.08;100.00;99336.00;5001818;28;20483;-85
2021/11/10 04:41:06;;;;;;;12.23;7.18;;;;;;;5.13;100.00;99334.19;5008607;28;20060;-86
2021/11/10 04:43:32;;;;;;;11.75;7.10;;;;;;;5.15;100.00;99343.88;5006098;28;20031;-85
2021/11/10 04:46:08;;;;;;;13.98;8.57;;;;;;;5.06;100.00;99329.84;5015382;28;20034;-84
2021/11/10 04:48:36;;;;;;;16.60;8.05;;;;;;;5.21;100.00;99333.19;5017176;28;20025;-86
2021/11/10 04:51:03;;;;;;;17.75;7.25;;;;;;;5.21;100.00;99332.31;4999517;28;20041;-84
2021/11/10 04:53:30;;;;;;;12.77;7.30;;;;;;;5.20;100.00;99335.88;4999242;28;20025;-84
2021/11/10 04:55:55;;;;;;;16.77;8.32;;;;;;;5.19;100.00;99336.75;5015161;28;20021;-85
2021/11/10 04:58:21;;;;;;;14.30;8.13;;;;;;;5.31;100.00;99341.91;4999146;28;20029;-86
2021/11/10 05:00:47;;;;;;;17.88;8.60;;;;;;;5.37;100.00;99347.16;5003391;28;20091;-86
2021/11/10 05:03:13;;;;;;;15.57;7.97;;;;;;;5.25;100.00;99323.44;4987550;28;20068;-85
2021/11/10 05:05:39;;;;;;;17.35;7.90;;;;;;;5.35;100.00;99352.47;5011717;28;20063;-85
2021/11/10 05:08:05;;;;;;;16.33;8.05;;;;;;;5.35;100.00;99343.66;4998834;28;20492;-85
2021/11/10 05:10:30;;;;;;;17.70;7.43;;;;;;;5.41;100.00;99351.53;5009687;28;20033;-84
2021/11/10 05:12:56;;;;;;;12.45;7.93;;;;;;;5.39;100.00;99342.69;5005171;28;20531;-84
2021/11/10 05:15:22;;;;;;;16.60;7.60;;;;;;;5.28;100.00;99334.00;4999244;28;20032;-85
2021/11/10 05:17:47;;;;;;;14.30;7.50;;;;;;;5.27;100.00;99349.03;5008689;28;20464;-85
2021/11/10 05:20:13;;;;;;;27.15;16.08;;;;;;;5.40;100.00;99357.72;5002797;28;20128;-87
2021/11/10 05:22:39;;;;;;;36.28;19.75;;;;;;;5.30;100.00;99364.03;4993601;28;20049;-85
2021/11/10 05:25:05;;;;;;;32.22;18.00;;;;;;;5.04;100.00;99339.59;5014368;28;20061;-85
2021/11/10 05:27:31;;;;;;;31.35;15.93;;;;;;;5.11;100.00;99362.47;5011314;28;20025;-85
2021/11/10 05:29:57;;;;;;;28.23;14.52;;;;;;;5.09;100.00;99356.31;5013415;28;20037;-85
2021/11/10 05:32:22;;;;;;;35.20;16.70;;;;;;;5.11;100.00;99351.88;5014830;28;20040;-85
2021/11/10 05:34:48;;;;;;;29.20;16.38;;;;;;;5.11;100.00;99351.88;5014557;28;20479;-84
2021/11/10 05:37:14;;;;;;;32.38;17.73;;;;;;;5.22;100.00;99371.22;5006197;28;20029;-85
2021/11/10 05:39:39;;;;;;;34.17;18.83;;;;;;;5.29;100.00;99386.19;5011079;28;20473;-85
2021/11/10 05:42:05;;;;;;;30.25;17.17;;;;;;;5.27;100.00;99356.09;5023177;28;20026;-85
2021/11/10 05:44:32;;;;;;;28.38;17.52;;;;;;;5.33;100.00;99374.59;5006350;28;20017;-85
2021/11/10 05:46:58;;;;;;;29.42;18.30;;;;;;;5.29;100.00;99372.91;5014371;28;20104;-84
2021/11/10 05:49:23;;;;;;;31.60;18.50;;;;;;;5.33;100.00;99382.56;5015636;28;20077;-85
2021/11/10 05:51:49;;;;;;;36.20;20.00;;;;;;;5.51;100.00;99395.63;5009087;28;20485;-85
2021/11/10 05:54:14;;;;;;;38.47;20.80;;;;;;;5.57;100.00;99398.19;4995214;28;20056;-87
2021/11/10 05:56:42;;;;;;;42.50;23.20;;;;;;;5.67;100.00;99401.63;5011458;28;20026;-85
2021/11/10 05:59:09;;;;;;;43.33;24.73;;;;;;;5.62;100.00;99391.06;5011511;28;20030;-85
2021/11/10 06:01:35;;;;;;;56.17;28.88;;;;;;;5.70;100.00;99397.16;4998349;28;20119;-76
2021/11/10 06:04:00;;;;;;;78.32;36.50;;;;;;;5.84;100.00;99411.16;5002631;28;20040;-88
2021/11/10 06:06:27;;;;;;;31.60;18.73;;;;;;;6.75;100.00;99424.84;5007478;28;20413;-86
2021/11/10 06:08:53;;;;;;;30.15;15.43;;;;;;;8.60;100.00;99430.88;5022427;28;20175;-88
2021/11/10 06:11:20;;;;;;;25.15;14.98;;;;;;;10.19;94.45;99441.72;4996752;28;20084;-89
2021/11/10 06:13:45;;;;;;;21.40;11.38;;;;;;;10.68;84.91;99441.94;5015465;28;20128;-88
2021/11/10 06:16:11;;;;;;;15.93;8.20;;;;;;;10.81;82.20;99431.72;5014557;28;20108;-88
2021/11/10 06:18:36;;;;;;;36.80;7.93;;;;;;;11.03;79.06;99443.47;5000605;28;20501;-87
2021/11/10 06:21:04;;;;;;;13.73;7.72;;;;;;;10.24;82.62;99445.16;5005530;28;20091;-88
2021/11/10 06:23:29;;;;;;;14.60;8.57;;;;;;;9.48;88.57;99433.03;4998384;28;20025;-89
2021/11/10 06:25:55;;;;;;;19.65;10.07;;;;;;;8.96;93.42;99444.22;5011468;28;20117;-87
2021/11/10 06:28:21;;;;;;;81.60;10.35;;;;;;;8.12;100.00;99435.50;4994639;28;20064;-88
2021/11/10 06:30:46;;;;;;;42.45;10.68;;;;;;;7.71;100.00;99432.84;5011923;28;20456;-87
2021/11/10 06:33:12;;;;;;;25.65;11.00;;;;;;;7.59;100.00;99443.72;4997273;28;20121;-87
2021/11/10 06:35:38;;;;;;;31.42;13.52;;;;;;;7.73;100.00;99446.97;5013902;28;20018;-88
2021/11/10 06:38:03;;;;;;;22.48;11.00;;;;;;;7.71;100.00;99435.50;4986245;28;20026;-86
2021/11/10 06:40:29;;;;;;;32.35;10.32;;;;;;;7.70;100.00;99455.03;5008529;28;20053;-87
2021/11/10 06:42:55;;;;;;;21.17;10.63;;;;;;;7.44;100.00;99444.03;5027756;28;20100;-87
2021/11/10 06:45:21;;;;;;;23.15;11.90;;;;;;;7.45;100.00;99459.06;4994911;28;20037;-88
2021/11/10 06:47:47;;;;;;;29.02;12.82;;;;;;;7.48;100.00;99451.03;5013855;28;20053;-76
2021/11/10 06:50:14;;;;;;;22.70;11.27;;;;;;;7.45;100.00;99456.41;5006084;28;20080;-88
2021/11/10 06:52:43;;;;;;;16.02;9.88;;;;;;;7.45;100.00;99451.97;5027356;28;20036;-87
2021/11/10 06:55:09;;;;;;;18.70;11.48;;;;;;;7.47;100.00;99447.53;4995094;28;20472;-85
2021/11/10 06:57:35;;;;;;;32.50;18.75;;;;;;;7.78;100.00;99477.09;5010028;28;20037;-86
2021/11/10 07:00:03;;;;;;;33.28;18.80;;;;;;;7.71;100.00;99483.44;5007210;28;20033;-86
2021/11/10 07:02:29;;;;;;;19.88;12.20;;;;;;;7.56;100.00;99473.09;5004608;28;20025;-87
2021/11/10 07:04:54;;;;;;;23.63;13.50;;;;;;;7.47;100.00;99459.94;5032211;28;20021;-85
2021/11/10 07:07:20;;;;;;;26.88;13.63;;;;;;;7.59;100.00;99471.25;5017670;28;20485;-87
2021/11/10 07:09:46;;;;;;;27.08;13.55;;;;;;;7.79;100.00;99477.94;5029637;28;20033;-87
2021/11/10 07:12:11;;;;;;;23.30;12.65;;;;;;;8.09;100.00;99461.34;5017920;28;20417;-89
2021/11/10 07:14:37;;;;;;;21.40;11.25;;;;;;;8.21;100.00;99455.75;5015306;28;20025;-87
2021/11/10 07:17:03;;;;;;;18.88;10.88;;;;;;;8.46;100.00;99456.97;5000338;28;20117;-86
2021/11/10 07:19:28;;;;;;;13.95;9.70;;;;;;;8.84;99.19;99464.09;5017683;28;20092;-86
2021/11/10 07:21:54;;;;;;;20.88;11.93;;;;;;;9.07;95.74;99456.41;5018526;28;20117;-88
2021/11/10 07:24:20;;;;;;;23.58;14.65;;;;;;;9.69;92.77;99440.50;5014937;28;20037;-87
2021/11/10 07:26:45;;;;;;;21.08;12.73;;;;;;;10.04;89.00;99459.06;5011559;28;20030;-90
2021/11/10 07:29:11;;;;;;;25.65;13.30;;;;;;;9.86;88.16;99454.25;5020729;28;20090;-88
2021/11/10 07:31:37;;;;;;;22.15;13.27;;;;;;;9.80;87.13;99460.66;5003019;28;20093;-87
2021/11/10 07:34:03;;;;;;;22.65;13.48;;;;;;;9.53;89.94;99450.72;5021586;28;20037;-87
2021/11/10 07:36:30;;;;;;;22.83;13.90;;;;;;;9.33;90.83;99462.84;5020155;28;20036;-87
2021/11/10 07:38:56;;;;;;;37.10;20.27;;;;;;;9.01;93.59;99440.50;5018497;28;20094;-87
2021/11/10 07:41:27;;;;;;;29.92;18.10;;;;;;;9.05;96.11;99458.22;5001820;28;20033;-86
2021/11/10 07:43:53;;;;;;;26.27;13.25;;;;;;;9.84;91.71;99466.78;4997993;28;20042;-89
2021/11/10 07:46:28;;;;;;;23.85;13.95;;;;;;;11.00;82.71;99459.66;5017204;28;20034;-86
2021/11/10 07:48:54;;;;;;;18.75;12.20;;;;;;;12.45;74.79;99451.72;4993376;28;20045;-81
2021/11/10 07:51:20;;;;;;;22.20;12.60;;;;;;;13.36;68.39;99464.13;5032486;28;20095;-74
2021/11/10 07:53:46;;;;;;;24.98;14.85;;;;;;;13.32;68.90;99467.00;5012998;28;20497;-74
2021/11/10 07:56:12;;;;;;;17.20;11.25;;;;;;;13.12;67.88;99465.16;5002808;28;20025;-75
2021/11/10 07:58:39;;;;;;;19.52;11.98;;;;;;;13.19;68.17;99455.91;5012729;28;20097;-75
2021/11/10 08:01:10;;;;;;;18.77;11.13;;;;;;;12.97;68.76;99455.88;5005458;28;20424;-75
2021/11/10 08:03:36;;;;;;;29.88;18.27;;;;;;;13.88;66.25;99454.66;5032242;28;20501;-75
2021/11/10 08:06:02;;;;;;;15.30;10.13;;;;;;;15.75;58.54;99438.31;5015757;28;20121;-75
2021/11/10 08:08:28;;;;;;;12.02;7.20;;;;;;;16.44;55.43;99438.19;5011679;28;20505;-74
2021/11/10 08:10:59;;;;;;;10.13;7.35;;;;;;;16.69;55.03;99439.47;5016232;28;20040;-75
2021/11/10 08:13:25;;;;;;;14.57;7.65;;;;;;;16.91;54.60;99446.34;5008313;28;20574;-76
2021/11/10 08:15:52;;;;;;;14.55;8.13;;;;;;;17.46;51.44;99441.31;5015455;28;20021;-74
2021/11/10 08:18:18;;;;;;;13.23;7.07;;;;;;;16.62;53.84;99443.47;5016020;28;20028;-75
2021/11/10 08:20:44;;;;;;;11.45;7.13;;;;;;;16.91;54.44;99457.16;5015768;28;20033;-74
2021/11/10 08:23:12;;;;;;;12.13;6.32;;;;;;;16.79;53.72;99446.09;5022956;28;20029;-81
2021/11/10 08:25:38;;;;;;;11.20;6.65;;;;;;;16.79;53.13;99440.69;5017065;28;20029;-82
2021/11/10 08:28:04;;;;;;;11.48;8.07;;;;;;;17.56;51.82;99438.00;5015833;28;20026;-74
2021/11/10 08:30:30;;;;;;;12.82;8.70;;;;;;;18.51;49.20;99433.88;5015492;28;20029;-74
2021/11/10 08:32:56;;;;;;;26.77;14.90;;;;;;;19.20;46.66;99432.94;5015132;28;20409;-74
2021/11/10 08:35:22;;;;;;;12.48;6.43;;;;;;;17.83;49.67;99447.16;5021119;28;20485;-76
2021/11/10 08:37:49;;;;;;;9.55;5.22;;;;;;;16.24;53.12;99459.03;4998777;28;20033;-74
2021/11/10 08:40:15;;;;;;;9.10;5.53;;;;;;;16.11;53.31;99441.78;5015361;28;20481;-75
2021/11/10 08:42:40;;;;;;;7.97;5.80;;;;;;;14.42;58.39;99464.75;4998702;28;20079;-76
2021/11/10 08:45:16;;;;;;;8.18;5.40;;;;;;;15.29;57.46;99449.72;5032816;28;20045;-75
2021/11/10 08:47:42;;;;;;;10.90;5.47;;;;;;;17.47;51.90;99437.63;5011501;28;20036;-74
2021/11/10 08:50:09;;;;;;;8.90;4.18;;;;;;;19.10;47.70;99416.41;5006975;28;20583;-77
2021/11/10 08:52:35;;;;;;;9.35;4.45;;;;;;;18.33;48.22;99418.75;5014958;28;20398;-77
2021/11/10 08:55:03;;;;;;;10.93;7.65;;;;;;;19.01;48.43;99427.00;5031594;28;20097;-75
2021/11/10 08:57:28;;;;;;;11.32;8.05;;;;;;;18.46;48.39;99427.81;4998363;28;20018;-75
2021/11/10 08:59:54;;;;;;;10.32;6.18;;;;;;;18.83;48.14;99439.91;5025344;28;20511;-77
2021/11/10 09:02:19;;;;;;;8.98;6.05;;;;;;;19.48;46.07;99427.41;4995346;28;20036;-75
2021/11/10 09:04:45;;;;;;;8.45;5.65;;;;;;;19.66;44.68;99403.56;5011139;28;20107;-76
2021/11/10 09:07:10;;;;;;;7.47;5.53;;;;;;;17.00;51.64;99443.13;5002439;28;20044;-75
2021/11/10 09:09:37;;;;;;;7.57;4.93;;;;;;;15.39;54.82;99451.88;5014763;28;20052;-76
2021/11/10 09:12:04;;;;;;;8.00;5.72;;;;;;;14.47;58.24;99457.31;4998301;28;20497;-75
2021/11/10 09:14:30;;;;;;;11.68;5.60;;;;;;;14.16;60.46;99456.97;4994919;28;20084;-76
2021/11/10 09:16:55;;;;;;;9.27;5.45;;;;;;;13.86;61.97;99445.78;5001050;28;20053;-74
2021/11/10 09:19:21;;;;;;;7.30;5.13;;;;;;;14.42;61.32;99432.44;5011310;28;20080;-77
2021/11/10 09:21:46;;;;;;;9.35;4.75;;;;;;;15.18;59.08;99426.88;5002306;28;20033;-75
2021/11/10 09:24:14;;;;;;;8.70;4.95;;;;;;;14.95;58.65;99431.69;5006905;28;20029;-76
2021/11/10 09:26:40;;;;;;;5.38;4.07;;;;;;;13.28;63.64;99425.94;5026362;28;20112;-75
2021/11/10 09:29:06;;;;;;;7.18;4.65;;;;;;;14.75;60.07;99421.84;5019364;28;20032;-75
2021/11/10 09:31:35;;;;;;;5.22;3.83;;;;;;;14.40;59.41;99425.34;5014158;28;20137;-75
2021/11/10 09:34:05;;;;;;;7.68;4.32;;;;;;;15.80;55.48;99414.69;5032203;28;20562;-74
2021/11/10 09:36:30;;;;;;;8.50;4.20;;;;;;;16.75;51.96;99395.00;4994519;28;20017;-74
2021/11/10 09:38:56;;;;;;;8.05;4.15;;;;;;;17.06;50.86;99386.84;4994598;28;20029;-76
2021/11/10 09:41:23;;;;;;;6.47;4.03;;;;;;;17.69;50.24;99389.38;5006761;28;20025;-76
2021/11/10 09:43:49;;;;;;;7.68;4.57;;;;;;;17.32;50.49;99385.28;4998629;28;20087;-75
2021/11/10 09:46:14;;;;;;;7.57;4.00;;;;;;;18.53;47.08;99375.00;5031536;28;20040;-75
2021/11/10 09:48:41;;;;;;;8.25;5.47;;;;;;;19.27;47.05;99374.56;5013526;28;20476;-74
2021/11/10 09:51:07;;;;;;;6.00;3.78;;;;;;;20.35;44.67;99365.13;5022560;28;20049;-74
2021/11/10 09:53:34;;;;;;;5.25;3.40;;;;;;;19.67;45.04;99359.13;5010268;28;20485;-75
2021/11/10 09:56:00;;;;;;;10.35;4.30;;;;;;;20.65;43.23;99349.28;5026220;28;20087;-75
2021/11/10 09:58:26;;;;;;;6.82;4.60;;;;;;;21.94;40.48;99334.75;5010333;28;20029;-75
2021/11/10 10:01:05;;;;;;;6.85;4.53;;;;;;;20.97;42.34;99336.88;5010152;28;20425;-74
2021/11/10 10:03:30;;;;;;;11.40;4.50;;;;;;;20.73;42.16;99333.28;5007351;28;20104;-76
2021/11/10 10:05:56;;;;;;;5.80;4.40;;;;;;;19.46;43.37;99326.22;5004548;28;20037;-76
2021/11/10 10:08:22;;;;;;;5.05;4.38;;;;;;;19.76;44.14;99334.03;5018224;28;20033;-75
2021/11/10 10:10:49;;;;;;;6.47;4.75;;;;;;;20.63;42.97;99325.91;5011144;28;20060;-75
2021/11/10 10:13:16;;;;;;;8.45;4.70;;;;;;;21.21;41.10;99306.06;4993655;28;20478;-74
2021/11/10 10:15:43;;;;;;;9.27;4.82;;;;;;;22.03;39.55;99297.69;5009731;28;20409;-82
2021/11/10 10:18:17;;;;;;;7.05;4.47;;;;;;;22.45;38.39;99285.16;5009167;28;20051;-74
2021/11/10 10:20:46;;;;;;;5.45;4.05;;;;;;;22.55;37.56;99288.84;5006616;28;20072;-74
2021/11/10 10:23:15;;;;;;;9.45;5.90;;;;;;;22.88;37.15;99275.16;5009386;28;20026;-76
2021/11/10 10:25:47;;;;;;;10.93;4.68;;;;;;;21.06;40.19;99279.00;5003818;28;20485;-75
2021/11/10 10:28:19;;;;;;;6.65;3.83;;;;;;;22.13;38.85;99277.75;5022187;28;20025;-76
2021/11/10 10:30:57;;;;;;;5.00;4.18;;;;;;;20.95;40.03;99268.06;5016064;28;20490;-76
2021/11/10 10:33:29;;;;;;;7.65;4.40;;;;;;;21.91;38.82;99266.84;5008093;28;20030;-75
2021/11/10 10:35:57;;;;;;;5.68;4.45;;;;;;;21.45;38.60;99263.28;5000690;28;20374;-75
2021/11/10 10:38:29;;;;;;;6.88;4.72;;;;;;;18.94;44.22;99280.94;5009053;28;20034;-75
2021/11/10 10:40:59;;;;;;;7.22;4.60;;;;;;;19.99;42.36;99260.78;5008659;28;20390;-76
2021/11/10 10:43:26;;;;;;;6.78;4.80;;;;;;;20.66;41.08;99258.53;5008887;28;20110;-75
2021/11/10 10:45:54;;;;;;;5.38;3.25;;;;;;;21.39;40.20;99247.44;5008673;28;20037;-75
2021/11/10 10:48:25;;;;;;;4.32;3.60;;;;;;;19.82;41.54;99246.69;5014351;28;20611;-76
2021/11/10 10:50:55;;;;;;;5.85;4.07;;;;;;;20.35;41.46;99257.25;5005342;28;20133;-75
2021/11/10 10:53:41;;;;;;;4.95;3.22;;;;;;;20.23;40.56;99251.81;4988702;28;20091;-75
2021/11/10 10:56:27;;;;;;;4.22;3.50;;;;;;;21.43;38.77;99240.78;4979686;28;20053;-76
2021/11/10 10:58:57;;;;;;;9.68;4.85;;;;;;;21.79;38.42;99231.50;5016613;28;20030;-75
2021/11/10 11:01:27;;;;;;;5.65;3.70;;;;;;;21.09;39.54;99231.66;4989164;28;20032;-75
2021/11/10 11:04:00;;;;;;;6.22;4.20;;;;;;;21.91;38.66;99225.09;5005676;28;20068;-75
2021/11/10 11:06:31;;;;;;;6.00;3.50;;;;;;;21.65;37.98;99229.91;4984671;28;20038;-76
2021/11/10 11:08:58;;;;;;;4.93;3.78;;;;;;;19.63;41.47;99227.25;4971692;28;20093;-75
2021/11/10 11:11:39;;;;;;;7.60;3.10;;;;;;;20.24;40.08;99223.69;5005061;28;20100;-76
2021/11/10 11:14:15;;;;;;;3.58;3.13;;;;;;;20.28;40.26;99228.78;4971305;28;20069;-74
2021/11/10 11:16:42;;;;;;;3.97;3.22;;;;;;;20.92;39.40;99219.31;5004600;28;20022;-76
2021/11/10 11:19:18;;;;;;;10.52;3.35;;;;;;;21.33;38.47;99212.53;4988812;28;20196;-76
2021/11/10 11:21:52;;;;;;;4.25;3.45;;;;;;;20.68;39.28;99198.56;4961808;28;20417;-75
2021/11/10 11:24:37;;;;;;;3.70;3.38;;;;;;;21.33;38.88;99212.53;4981411;28;20031;-74